UUBP

Bryansk Airport

Bryansk, Russian Federation
TAF UUBP 221359Z 2215/2224 07005MPS 9999 BKN025CB TEMPO 2215/2221 VRB06G13MPS 3100 -TSRA SQ BKN011CB
Issued Valid From Valid To
Jul-22 @ 13:59 UTC
(6 hours ago)
Jul-22 @ 15:00 UTC
(5 hours ago)
Jul-23 @ 00:00 UTC
(in 4 hours)
Jul-22 @ 15:00 to Jul-23 @ 00:00
TAF UUBP 221359Z 2215/2224 07005MPS 9999 BKN025CB
Wind Visibility Clouds
70° at 10 knots 10,000+ meters
  • Broken at 2,500' AGL
Temporary Jul-22 @ 15:00 to Jul-22 @ 21:00
TEMPO 2215/2221 VRB06G13MPS 3100 -TSRA SQ BKN011CB
Wind Visibility Clouds Conditions
Variable at 12 knots
 Gusting to 25 knots
3,106 meters
  • Broken at 1,100' AGL
  • Light Thunderstorm
  • Light Rain
  • Squalls
TAF UUBP 221359Z 2215/2224 07005MPS 9999 BKN025CB TEMPO 2215/2221 VRB06G13MPS 3100 -TSRA SQ BKN011CB
Issued Jul-22 @ 13:59 UTC
(6 hours ago)
Valid From Jul-22 @ 15:00 UTC
(5 hours ago)
Valid To Jul-23 @ 00:00 UTC
(in 4 hours)
Jul-22 @ 15:00 - Jul-23 @ 00:00
Wind Visibility
70° at 10 knots 10,000+ meters
Clouds
  • Broken at 2,500' AGL
Temporary Jul-22 @ 15:00 - Jul-22 @ 21:00
Wind Visibility
Variable at 12 knots
 Gusting to 25 knots
3,106 meters
Clouds
  • Broken at 1,100' AGL
Conditions
  • Light Thunderstorm
  • Light Rain
  • Squalls